Time;durP1;ratioP1;P1;durP2;ratioP2;P2;SDS_P1;SDS_P2;PMS_P1;PMS_P2;Temp;Humidity;BMP_temperature;BMP_pressure;BME280_temperature;BME280_humidity;BME280_pressure;Samples;Min_cycle;Max_cycle;Signal;HPM_P1;HPM_P2
2023/10/13 00:00:29;;;;;;;7.30;4.60;;;;;;;21.35;50.02;98786.81;6952342;28;20242;-82
2023/10/13 00:03:52;;;;;;;6.77;4.57;;;;;;;21.93;48.27;98756.88;6953959;28;20203;-82
2023/10/13 00:07:13;;;;;;;9.03;5.20;;;;;;;22.16;48.31;98789.19;6951768;28;20228;-83
2023/10/13 00:10:35;;;;;;;9.20;4.47;;;;;;;21.98;48.78;98781.56;6946490;28;20303;-82
2023/10/13 00:13:58;;;;;;;9.17;4.30;;;;;;;21.69;49.82;98790.66;6947357;28;20246;-82
2023/10/13 00:17:20;;;;;;;7.23;4.57;;;;;;;21.78;49.32;98780.78;6952901;28;20227;-82
2023/10/13 00:20:48;;;;;;;7.17;5.00;;;;;;;21.92;48.78;98790.91;6949886;28;20345;-83
2023/10/13 00:24:13;;;;;;;7.53;4.60;;;;;;;22.00;48.51;98787.59;6948097;28;20199;-82
2023/10/13 00:27:40;;;;;;;5.60;4.83;;;;;;;21.72;48.80;98763.50;6954757;28;20252;-82
2023/10/13 00:31:10;;;;;;;8.17;4.83;;;;;;;21.43;49.86;98762.41;6952698;28;20216;-82
2023/10/13 00:34:33;;;;;;;5.20;4.70;;;;;;;21.63;49.84;98778.03;6951251;28;20731;-82
2023/10/13 00:37:56;;;;;;;9.37;4.27;;;;;;;21.52;49.43;98758.00;6959335;28;20214;-82
2023/10/13 00:41:33;;;;;;;5.63;4.70;;;;;;;21.73;48.93;98765.13;6958713;28;20211;-82
2023/10/13 00:44:54;;;;;;;9.77;4.23;;;;;;;21.53;47.61;98772.56;6957894;28;20712;-82
2023/10/13 00:48:17;;;;;;;10.67;4.57;;;;;;;21.80;46.44;98776.66;6955659;28;20227;-82
2023/10/13 00:51:41;;;;;;;7.93;4.53;;;;;;;21.29;49.50;98783.25;6954160;28;20232;-82
2023/10/13 00:55:04;;;;;;;7.17;5.10;;;;;;;21.65;48.05;98773.91;6955023;28;20223;-82
2023/10/13 00:58:27;;;;;;;5.77;4.33;;;;;;;21.68;46.98;98739.63;6954434;28;20204;-82
2023/10/13 01:01:53;;;;;;;7.50;4.50;;;;;;;22.03;45.67;98764.25;6963948;28;20206;-83
2023/10/13 01:05:19;;;;;;;8.83;5.13;;;;;;;21.34;47.94;98755.84;6956861;28;20728;-82
2023/10/13 01:08:44;;;;;;;10.60;4.50;;;;;;;21.53;48.71;98769.81;6966499;28;20207;-82
2023/10/13 01:12:07;;;;;;;7.50;4.50;;;;;;;21.39;49.26;98780.53;6954271;28;20227;-82
2023/10/13 01:15:30;;;;;;;6.13;4.87;;;;;;;21.12;49.39;98765.44;6955985;28;20257;-82
2023/10/13 01:18:51;;;;;;;7.07;5.00;;;;;;;21.22;49.54;98784.63;6947716;28;20207;-83
2023/10/13 01:22:14;;;;;;;8.77;4.47;;;;;;;20.99;49.74;98779.66;6952626;28;20199;-82
2023/10/13 01:25:36;;;;;;;6.77;4.63;;;;;;;20.69;51.02;98763.16;6954525;28;20251;-82
2023/10/13 01:28:58;;;;;;;8.60;4.90;;;;;;;20.78;50.75;98765.09;6951557;28;20321;-82
2023/10/13 01:32:22;;;;;;;8.37;4.97;;;;;;;21.16;50.00;98762.97;6951482;28;20290;-83
2023/10/13 01:35:47;;;;;;;7.77;5.10;;;;;;;21.17;49.74;98756.41;6959177;28;20258;-83
2023/10/13 01:39:08;;;;;;;8.67;5.40;;;;;;;20.88;50.72;98758.81;6941425;28;20295;-82
2023/10/13 01:42:30;;;;;;;7.27;4.57;;;;;;;20.73;50.58;98758.78;6960197;28;20195;-82
2023/10/13 01:45:53;;;;;;;8.23;4.83;;;;;;;20.44;51.56;98765.00;6971403;28;20223;-83
2023/10/13 01:49:15;;;;;;;6.43;4.53;;;;;;;20.93;50.45;98764.31;6971519;28;20239;-83
2023/10/13 01:52:36;;;;;;;6.97;5.00;;;;;;;20.55;51.11;98764.78;6963209;28;20280;-82
2023/10/13 01:56:05;;;;;;;4.90;4.40;;;;;;;19.93;51.69;98743.97;6951848;28;20909;-82
2023/10/13 01:59:28;;;;;;;6.73;4.57;;;;;;;20.07;51.68;98767.03;6954499;28;20198;-82
2023/10/13 02:02:50;;;;;;;12.23;4.50;;;;;;;20.63;50.25;98749.72;6958407;28;20206;-83
2023/10/13 02:06:16;;;;;;;8.67;5.10;;;;;;;20.17;51.37;98742.47;6952554;28;20226;-82
2023/10/13 02:09:38;;;;;;;6.73;4.67;;;;;;;20.56;49.81;98754.63;6958069;28;20196;-82
2023/10/13 02:12:59;;;;;;;8.17;4.77;;;;;;;20.49;50.17;98743.94;6956405;28;20598;-83
2023/10/13 02:16:22;;;;;;;7.63;4.60;;;;;;;20.16;51.11;98735.34;6960335;28;20211;-83
2023/10/13 02:19:45;;;;;;;7.03;5.00;;;;;;;20.08;50.95;98722.16;6970419;28;20885;-82
2023/10/13 02:23:10;;;;;;;8.03;4.67;;;;;;;20.10;51.30;98741.88;6951824;28;20191;-83
2023/10/13 02:26:32;;;;;;;6.23;4.87;;;;;;;19.84;51.14;98732.69;6950007;28;20224;-82
2023/10/13 02:29:58;;;;;;;7.30;4.63;;;;;;;19.87;51.26;98718.47;6929947;28;20206;-83
2023/10/13 02:33:22;;;;;;;8.87;5.37;;;;;;;19.73;51.99;98732.91;6948824;28;20310;-82
2023/10/13 02:36:48;;;;;;;7.20;4.63;;;;;;;20.02;51.01;98710.34;6945013;28;20235;-82
2023/10/13 02:40:11;;;;;;;8.60;4.90;;;;;;;19.72;50.83;98690.22;6947185;28;20199;-83
2023/10/13 02:43:33;;;;;;;8.17;4.97;;;;;;;19.74;51.48;98715.41;6946717;28;20700;-82
2023/10/13 02:46:56;;;;;;;8.87;5.00;;;;;;;19.46;51.87;98697.47;6947601;28;20692;-83
2023/10/13 02:50:18;;;;;;;6.33;4.67;;;;;;;19.70;51.69;98714.28;6947135;28;20207;-83
2023/10/13 02:53:47;;;;;;;6.70;4.90;;;;;;;19.27;52.17;98674.38;6940916;28;20215;-83
2023/10/13 02:57:08;;;;;;;7.37;4.80;;;;;;;19.31;51.63;98672.78;6945109;28;20222;-82
2023/10/13 03:00:31;;;;;;;9.40;5.10;;;;;;;19.59;51.95;98707.94;6943766;28;20341;-83
2023/10/13 03:03:55;;;;;;;7.07;4.23;;;;;;;19.30;51.86;98681.22;6948199;28;20290;-84
2023/10/13 03:07:23;;;;;;;5.90;4.80;;;;;;;19.54;51.79;98693.41;6944475;28;20231;-83
2023/10/13 03:10:49;;;;;;;6.10;5.23;;;;;;;19.52;51.27;98688.19;6944793;28;20203;-81
2023/10/13 03:14:23;;;;;;;9.07;4.87;;;;;;;19.57;50.67;98680.03;6950279;28;20290;-84
2023/10/13 03:17:45;;;;;;;7.37;5.10;;;;;;;19.42;50.98;98685.41;6943371;28;20199;-83
2023/10/13 03:21:07;;;;;;;9.20;4.60;;;;;;;19.16;51.56;98685.50;6951391;28;20203;-83
2023/10/13 03:24:34;;;;;;;15.87;5.00;;;;;;;19.39;51.35;98693.34;6947319;28;20203;-83
2023/10/13 03:28:04;;;;;;;7.03;5.00;;;;;;;19.30;50.96;98662.94;6944747;28;20203;-83
2023/10/13 03:31:28;;;;;;;6.33;4.93;;;;;;;19.40;51.11;98695.78;6941934;28;20584;-83
2023/10/13 03:35:11;;;;;;;6.70;5.10;;;;;;;19.21;51.49;98683.63;6947908;28;20378;-83
2023/10/13 03:38:54;;;;;;;6.23;4.67;;;;;;;19.41;50.56;98670.06;6937353;28;20196;-83
2023/10/13 03:42:19;;;;;;;12.57;6.03;;;;;;;18.96;52.03;98685.31;6811321;29;20211;-83
2023/10/13 03:45:42;;;;;;;7.50;5.30;;;;;;;18.73;52.68;98693.88;6820205;29;20223;-83
2023/10/13 03:49:06;;;;;;;8.33;5.70;;;;;;;18.92;51.99;98673.28;6808862;29;20209;-83
2023/10/13 03:52:34;;;;;;;6.90;5.83;;;;;;;18.86;52.47;98677.06;6806678;29;20241;-83
2023/10/13 03:56:08;;;;;;;11.47;7.33;;;;;;;18.83;52.71;98678.41;6810674;29;20269;-83
2023/10/13 03:59:35;;;;;;;8.57;6.10;;;;;;;18.70;52.94;98678.00;6817507;29;20214;-83
2023/10/13 04:03:08;;;;;;;9.43;5.57;;;;;;;18.55;53.24;98675.97;6820062;28;20194;-83
2023/10/13 04:17:45;;;;;;;8.57;5.47;;;;;;;18.46;53.93;98698.53;6833953;28;20205;-83
2023/10/13 04:21:18;;;;;;;7.63;5.00;;;;;;;18.29;54.39;98678.69;6945568;28;20290;-83
2023/10/13 04:25:00;;;;;;;8.20;5.50;;;;;;;18.55;53.68;98675.13;6955026;28;20239;-83
2023/10/13 04:28:34;;;;;;;8.17;5.20;;;;;;;18.61;53.34;98682.28;6973252;28;20199;-83
2023/10/13 04:32:00;;;;;;;10.73;5.17;;;;;;;18.28;54.31;98685.22;6958259;28;20785;-83
2023/10/13 04:35:25;;;;;;;9.30;5.83;;;;;;;18.39;54.29;98681.56;6976780;28;20230;-81
2023/10/13 04:38:56;;;;;;;7.83;5.27;;;;;;;18.60;53.75;98681.47;6943048;28;20292;-81
2023/10/13 04:42:39;;;;;;;8.90;5.23;;;;;;;18.49;53.97;98677.00;6935882;28;20233;-82
2023/10/13 04:46:14;;;;;;;8.83;5.30;;;;;;;18.26;54.75;98673.72;6943651;28;20230;-81
2023/10/13 04:49:51;;;;;;;9.17;5.73;;;;;;;18.22;54.79;98667.94;6945254;28;20201;-81
2023/10/13 04:53:28;;;;;;;6.77;5.47;;;;;;;18.32;54.39;98670.81;6954794;28;20220;-81
2023/10/13 05:00:56;;;;;;;8.27;5.37;;;;;;;18.38;54.63;98658.03;6950347;28;20206;-81
2023/10/13 05:04:37;;;;;;;6.53;5.07;;;;;;;18.46;53.83;98643.94;6963164;28;20272;-82
2023/10/13 05:44:47;;;;;;;8.47;4.77;;;;;;;18.90;50.80;98635.28;6948897;28;20290;-81
2023/10/13 05:48:12;;;;;;;10.70;4.83;;;;;;;18.71;51.22;98649.59;6947914;28;20198;-81
2023/10/13 05:51:43;;;;;;;7.13;5.10;;;;;;;18.71;51.40;98644.16;6939415;28;20207;-81
2023/10/13 06:31:45;;;;;;;15.03;6.53;;;;;;;19.47;51.71;98649.91;6949965;28;20285;-82
2023/10/13 06:35:08;;;;;;;14.43;6.67;;;;;;;19.41;51.62;98620.84;6955221;28;20236;-82
2023/10/13 06:38:36;;;;;;;13.47;7.30;;;;;;;19.30;50.89;98593.75;6947711;28;20206;-81
2023/10/13 06:41:58;;;;;;;11.43;6.27;;;;;;;19.62;51.44;98671.84;6943385;28;21504;-82
2023/10/13 06:45:21;;;;;;;9.63;5.67;;;;;;;19.90;50.24;98667.84;6943709;28;20238;-82
2023/10/13 06:48:43;;;;;;;6.33;5.27;;;;;;;20.10;49.98;98655.09;6945281;28;20654;-81
2023/10/13 06:52:06;;;;;;;8.40;5.33;;;;;;;20.72;48.78;98663.16;6943992;28;20234;-82
2023/10/13 06:55:31;;;;;;;7.67;4.73;;;;;;;21.24;47.50;98646.13;6946212;28;20233;-82
2023/10/13 06:59:02;;;;;;;7.87;5.53;;;;;;;21.03;46.85;98638.22;6941784;28;20257;-82
2023/10/13 07:02:33;;;;;;;7.30;4.80;;;;;;;21.64;45.67;98612.28;6936037;28;20206;-84
2023/10/13 07:05:58;;;;;;;8.10;4.83;;;;;;;21.97;45.59;98630.81;6942832;28;20307;-81
2023/10/13 07:09:40;;;;;;;7.47;5.13;;;;;;;22.34;45.64;98647.63;6954733;28;20253;-84
2023/10/13 07:13:07;;;;;;;10.47;5.60;;;;;;;22.17;44.61;98584.84;6953178;28;20228;-80
2023/10/13 07:16:35;;;;;;;10.07;5.90;;;;;;;22.38;44.28;98611.09;6959482;28;20287;-84
2023/10/13 07:20:05;;;;;;;8.73;5.53;;;;;;;22.80;44.63;98647.06;6949514;28;20214;-85
2023/10/13 07:23:29;;;;;;;11.47;5.80;;;;;;;23.18;44.25;98646.19;6941189;28;20570;-83
2023/10/13 07:27:01;;;;;;;11.13;5.27;;;;;;;22.92;43.80;98641.19;6937968;28;20229;-81
2023/10/13 07:30:26;;;;;;;9.47;6.53;;;;;;;22.97;44.45;98650.22;6941265;28;20206;-81
2023/10/13 07:33:49;;;;;;;6.67;4.90;;;;;;;23.26;44.14;98651.06;6949068;28;20226;-84
2023/10/13 07:37:12;;;;;;;9.60;5.20;;;;;;;23.62;43.07;98608.31;6944358;28;20299;-82
2023/10/13 07:40:50;;;;;;;8.27;5.87;;;;;;;23.84;42.69;98640.78;6946994;28;20252;-82
2023/10/13 07:44:13;;;;;;;9.60;5.80;;;;;;;24.06;42.83;98641.09;6947504;28;20204;-81
2023/10/13 07:47:34;;;;;;;7.80;5.00;;;;;;;23.64;43.34;98574.94;6946397;28;20238;-81
2023/10/13 07:51:02;;;;;;;8.00;5.73;;;;;;;24.19;42.74;98640.38;6946429;28;20211;-82
2023/10/13 07:54:24;;;;;;;9.17;5.50;;;;;;;24.84;42.26;98628.34;6941568;28;20251;-82
2023/10/13 07:57:54;;;;;;;8.60;5.03;;;;;;;25.48;41.37;98622.81;6944053;28;20239;-84
2023/10/13 08:01:18;;;;;;;9.03;5.57;;;;;;;25.80;40.44;98633.75;6923991;28;20678;-82
2023/10/13 08:04:40;;;;;;;7.43;5.17;;;;;;;25.57;40.40;98621.78;6945395;28;20363;-82
2023/10/13 08:08:04;;;;;;;7.80;4.97;;;;;;;25.78;40.48;98624.97;6932257;28;20210;-82
2023/10/13 08:11:30;;;;;;;7.93;5.33;;;;;;;26.20;39.66;98614.38;6935527;28;20586;-81
2023/10/13 08:15:09;;;;;;;10.20;5.23;;;;;;;26.45;38.59;98605.53;6938345;28;20229;-80
2023/10/13 08:18:33;;;;;;;12.50;6.00;;;;;;;26.54;38.40;98625.00;6927658;28;20584;-82
2023/10/13 08:21:57;;;;;;;15.30;6.17;;;;;;;27.11;37.79;98616.63;6924981;28;20342;-82
2023/10/13 08:26:13;;;;;;;10.27;5.13;;;;;;;27.88;36.93;98612.31;6951425;28;20716;-82
2023/10/13 08:32:54;;;;;;;9.30;5.33;;;;;;;28.76;34.72;98600.69;6929787;28;20290;-82
2023/10/13 08:43:45;;;;;;;5.40;4.07;;;;;;;28.96;30.02;98593.69;6944267;28;20213;-80
2023/10/13 08:47:07;;;;;;;8.47;4.20;;;;;;;29.87;29.26;98572.59;6949107;28;20873;-82
2023/10/13 08:50:47;;;;;;;8.03;4.20;;;;;;;30.60;30.21;98583.09;6954633;28;20209;-83
2023/10/13 08:54:18;;;;;;;9.43;5.20;;;;;;;30.68;29.49;98577.47;6951186;28;20230;-81
2023/10/13 08:57:41;;;;;;;7.93;4.33;;;;;;;30.47;28.51;98579.41;6951556;28;20198;-81
2023/10/13 09:01:11;;;;;;;6.57;4.50;;;;;;;29.04;30.56;98565.06;6946698;28;20206;-80
2023/10/13 09:04:34;;;;;;;10.47;4.30;;;;;;;28.51;30.51;98561.84;6944915;28;20197;-83
2023/10/13 09:07:55;;;;;;;9.93;5.03;;;;;;;28.88;30.20;98552.81;6948674;28;20211;-83
2023/10/13 09:11:26;;;;;;;7.47;5.60;;;;;;;28.88;29.68;98547.25;6945207;28;20662;-82
2023/10/13 09:14:56;;;;;;;10.87;4.60;;;;;;;28.83;29.48;98491.97;6966447;28;20280;-82
2023/10/13 09:18:47;;;;;;;7.97;4.90;;;;;;;29.69;30.03;98571.06;6968712;28;20204;-83
2023/10/13 09:22:09;;;;;;;7.60;3.83;;;;;;;30.44;26.70;98557.81;6949784;28;20216;-83
2023/10/13 09:25:33;;;;;;;8.50;4.47;;;;;;;30.47;27.23;98567.44;6935048;28;20223;-83
2023/10/13 09:28:55;;;;;;;9.80;4.70;;;;;;;29.11;29.44;98548.72;6948997;28;20208;-79
2023/10/13 09:32:19;;;;;;;6.13;4.27;;;;;;;30.45;27.89;98551.13;6965405;28;20295;-81
2023/10/13 09:35:48;;;;;;;10.43;3.80;;;;;;;30.64;25.58;98559.81;6947035;28;20321;-81
2023/10/13 09:39:13;;;;;;;4.53;3.20;;;;;;;30.88;23.90;98486.69;6948738;28;20633;-82
2023/10/13 09:42:37;;;;;;;9.07;3.23;;;;;;;31.28;22.52;98552.63;6951356;28;20264;-81
2023/10/13 09:46:03;;;;;;;7.43;3.20;;;;;;;31.78;21.29;98550.34;6940475;28;20226;-81
2023/10/13 09:49:44;;;;;;;6.47;3.37;;;;;;;31.53;22.48;98543.13;6943326;28;20211;-80
2023/10/13 09:53:10;;;;;;;5.80;3.40;;;;;;;31.50;21.63;98548.59;6948339;28;20329;-83
2023/10/13 09:56:51;;;;;;;7.47;3.40;;;;;;;31.10;22.38;98537.22;6947603;28;20221;-79
2023/10/13 10:00:34;;;;;;;3.83;3.40;;;;;;;30.96;23.49;98510.84;6942342;28;20202;-82
2023/10/13 10:04:07;;;;;;;10.03;4.90;;;;;;;31.64;22.11;98530.34;6949176;28;20575;-81
2023/10/13 10:07:29;;;;;;;7.87;5.23;;;;;;;31.22;23.56;98483.53;6948897;28;20234;-81
2023/10/13 10:10:58;;;;;;;24.20;19.40;;;;;;;31.20;23.64;98508.94;6949689;28;21634;-79
2023/10/13 10:14:25;;;;;;;11.33;5.20;;;;;;;31.84;22.76;98514.69;6942249;28;20226;-79
2023/10/13 10:17:49;;;;;;;7.50;3.20;;;;;;;32.28;21.13;98517.31;6946321;28;20210;-79
2023/10/13 10:21:14;;;;;;;7.20;3.67;;;;;;;32.66;20.70;98502.84;6946664;28;20666;-80
2023/10/13 10:24:38;;;;;;;6.07;3.67;;;;;;;32.94;21.61;98500.84;6934127;28;20232;-80
2023/10/13 10:28:05;;;;;;;8.37;3.40;;;;;;;32.95;21.37;98491.31;6944675;28;20214;-80
2023/10/13 10:31:41;;;;;;;8.10;3.30;;;;;;;33.05;20.83;98494.41;6935135;28;20214;-81
2023/10/13 10:35:14;;;;;;;7.67;3.97;;;;;;;32.34;21.08;98506.69;6941400;28;20235;-80
2023/10/13 10:38:38;;;;;;;5.40;3.00;;;;;;;31.99;21.33;98407.97;6932098;28;20216;-80
2023/10/13 10:42:15;;;;;;;9.13;3.40;;;;;;;33.08;20.64;98482.47;6939522;28;20208;-79
2023/10/13 10:45:45;;;;;;;4.73;3.10;;;;;;;33.29;21.15;98483.06;6946249;28;20710;-80
2023/10/13 10:49:08;;;;;;;7.77;3.53;;;;;;;33.51;20.32;98479.63;6932985;28;20342;-79
2023/10/13 10:52:36;;;;;;;7.27;3.60;;;;;;;33.56;20.49;98467.34;6930370;28;20619;-80
2023/10/13 10:56:05;;;;;;;9.30;3.23;;;;;;;33.23;20.81;98433.34;6932914;28;20226;-78
2023/10/13 10:59:29;;;;;;;7.80;3.40;;;;;;;33.84;20.59;98454.06;6934163;28;20197;-80
2023/10/13 11:03:01;;;;;;;10.17;3.57;;;;;;;33.48;20.40;98443.22;6942072;28;20670;-79
2023/10/13 11:06:24;;;;;;;6.83;3.10;;;;;;;33.76;20.23;98435.47;6942508;28;20257;-80
2023/10/13 11:09:47;;;;;;;7.33;3.17;;;;;;;33.96;20.25;98431.56;6945737;28;20215;-81
2023/10/13 11:13:13;;;;;;;7.37;3.23;;;;;;;34.58;19.09;98420.88;6942345;28;20626;-80
2023/10/13 11:16:35;;;;;;;6.83;3.43;;;;;;;33.86;19.80;98430.16;6946233;28;20701;-81
2023/10/13 11:19:58;;;;;;;7.90;3.70;;;;;;;32.46;20.21;98411.72;6945403;28;20237;-81
2023/10/13 11:23:23;;;;;;;4.60;2.80;;;;;;;32.67;20.11;98420.69;6957528;28;20288;-80
2023/10/13 11:26:50;;;;;;;5.63;2.87;;;;;;;33.27;20.20;98404.38;6940566;28;20251;-81
2023/10/13 11:30:15;;;;;;;5.63;3.17;;;;;;;33.20;19.36;98390.16;6956331;28;20578;-80
2023/10/13 11:33:36;;;;;;;5.93;3.13;;;;;;;33.10;19.06;98382.38;6953867;28;20220;-82
2023/10/13 11:37:28;;;;;;;8.57;3.20;;;;;;;33.04;19.36;98396.97;6945694;28;20236;-80
2023/10/13 11:41:06;;;;;;;10.40;3.77;;;;;;;33.78;19.03;98397.59;6949694;28;20206;-80
2023/10/13 11:44:31;;;;;;;7.17;3.10;;;;;;;33.39;18.88;98398.66;6946629;28;20221;-80
2023/10/13 11:47:59;;;;;;;9.10;3.37;;;;;;;33.03;19.41;98401.75;6949743;28;20209;-80
2023/10/13 11:51:23;;;;;;;5.80;3.10;;;;;;;33.22;18.66;98395.41;6928365;28;20217;-80
2023/10/13 11:54:47;;;;;;;6.63;3.53;;;;;;;33.16;18.77;98385.69;6945730;28;20238;-79
2023/10/13 11:58:09;;;;;;;7.73;3.30;;;;;;;32.99;19.03;98378.50;6950173;28;20212;-80
2023/10/13 12:05:12;;;;;;;4.00;3.13;;;;;;;33.86;18.56;98377.00;6939120;28;20638;-80
2023/10/13 12:08:38;;;;;;;7.53;3.10;;;;;;;32.97;18.79;98354.88;6947976;28;20206;-80
2023/10/13 12:12:02;;;;;;;5.77;3.23;;;;;;;33.01;18.18;98350.19;6940052;28;20256;-80
2023/10/13 12:15:36;;;;;;;5.43;3.10;;;;;;;33.43;18.32;98354.03;6947977;28;20830;-80
2023/10/13 12:19:00;;;;;;;6.43;3.37;;;;;;;33.67;18.03;98354.56;6940344;28;20724;-79
2023/10/13 12:22:28;;;;;;;6.90;3.07;;;;;;;33.39;18.59;98347.53;6945087;28;20209;-80
2023/10/13 12:25:57;;;;;;;5.07;2.97;;;;;;;33.03;18.37;98309.56;6944923;28;20222;-81
2023/10/13 12:29:22;;;;;;;9.83;3.50;;;;;;;32.80;18.39;98333.72;6949676;28;20213;-80
2023/10/13 12:32:51;;;;;;;8.07;3.23;;;;;;;32.58;18.60;98336.28;6957231;28;20314;-80
2023/10/13 12:36:30;;;;;;;6.10;3.30;;;;;;;33.10;18.28;98337.66;6956248;28;20230;-80
2023/10/13 12:51:07;;;;;;;7.03;3.20;;;;;;;33.37;18.62;98307.97;6946237;28;20237;-80
2023/10/13 12:54:35;;;;;;;10.10;3.47;;;;;;;33.26;18.32;98312.47;6953061;28;20218;-82
2023/10/13 12:57:56;;;;;;;4.77;3.10;;;;;;;33.02;18.17;98304.31;6958649;28;20198;-80
2023/10/13 13:01:20;;;;;;;5.10;3.20;;;;;;;32.89;18.67;98308.41;6960416;28;20243;-82
2023/10/13 13:04:44;;;;;;;7.97;3.10;;;;;;;32.57;19.33;98295.59;6941946;28;20235;-83
2023/10/13 13:08:07;;;;;;;6.73;3.20;;;;;;;32.67;19.63;98290.25;6954210;28;20210;-81
2023/10/13 13:11:28;;;;;;;5.97;3.20;;;;;;;32.87;18.85;98269.66;6941871;28;20669;-80
2023/10/13 13:14:54;;;;;;;8.63;3.50;;;;;;;33.07;19.17;98239.78;6953782;28;20238;-80
2023/10/13 13:18:16;;;;;;;7.70;3.20;;;;;;;33.42;18.08;98216.22;6940874;28;20210;-81
2023/10/13 13:21:39;;;;;;;6.33;3.30;;;;;;;34.01;18.01;98272.56;6966870;28;20286;-81
2023/10/13 13:25:01;;;;;;;4.40;3.00;;;;;;;33.62;18.09;98200.25;6962313;28;20313;-80
2023/10/13 13:28:24;;;;;;;5.33;2.87;;;;;;;33.21;19.00;98257.69;6945161;28;20237;-80
2023/10/13 13:31:46;;;;;;;8.73;3.13;;;;;;;33.12;18.57;98262.66;6944521;28;20206;-81
2023/10/13 13:35:13;;;;;;;4.73;3.10;;;;;;;33.28;18.34;98248.66;6943222;28;20623;-80
2023/10/13 13:38:40;;;;;;;8.93;3.03;;;;;;;34.15;17.60;98256.06;6946258;28;20200;-81
2023/10/13 13:42:01;;;;;;;5.70;3.10;;;;;;;33.28;18.17;98238.28;6944995;28;20214;-81
2023/10/13 13:45:27;;;;;;;4.67;2.97;;;;;;;34.01;17.61;98235.41;6949532;28;20231;-81
2023/10/13 13:48:49;;;;;;;7.80;3.13;;;;;;;34.13;18.04;98226.81;6939949;28;20211;-81
2023/10/13 13:52:17;;;;;;;6.37;3.10;;;;;;;34.07;17.65;98197.53;6943005;28;20199;-81
2023/10/13 13:55:41;;;;;;;5.63;3.37;;;;;;;33.62;17.96;98217.84;6945923;28;20724;-81
2023/10/13 13:59:08;;;;;;;6.40;2.93;;;;;;;33.75;17.71;98215.69;6945832;28;20645;-81
2023/10/13 14:02:29;;;;;;;8.73;3.10;;;;;;;34.26;17.89;98187.09;6943030;28;20234;-83
2023/10/13 14:05:51;;;;;;;6.03;3.07;;;;;;;33.85;17.51;98210.31;6945033;28;20317;-82
2023/10/13 14:09:32;;;;;;;7.37;3.07;;;;;;;33.50;17.08;98198.41;6945066;28;20935;-81
2023/10/13 14:12:54;;;;;;;5.07;2.63;;;;;;;33.70;16.91;98193.59;6944472;28;20210;-80
2023/10/13 14:16:20;;;;;;;5.50;2.93;;;;;;;32.92;16.38;98168.00;6946549;28;20227;-82
2023/10/13 14:19:43;;;;;;;4.07;2.53;;;;;;;33.23;17.02;98181.81;6938643;28;20217;-81
2023/10/13 14:23:07;;;;;;;4.97;2.90;;;;;;;33.80;16.88;98191.06;6948409;28;20631;-82
2023/10/13 14:26:28;;;;;;;4.97;3.07;;;;;;;32.81;17.24;98173.34;6942091;28;20234;-83
2023/10/13 14:29:53;;;;;;;7.23;2.90;;;;;;;32.83;17.33;98189.75;6941095;28;20227;-82
2023/10/13 14:33:15;;;;;;;6.27;3.10;;;;;;;32.90;17.57;98182.31;6933575;28;20265;-82
2023/10/13 14:36:36;;;;;;;4.53;2.83;;;;;;;33.01;17.02;98166.59;6940591;28;20710;-82
2023/10/13 14:39:59;;;;;;;2.97;2.57;;;;;;;32.72;17.54;98141.19;6942516;28;20242;-82
2023/10/13 14:43:21;;;;;;;3.53;2.87;;;;;;;32.52;16.84;98131.16;6945151;28;20548;-82
2023/10/13 14:46:44;;;;;;;5.37;2.60;;;;;;;32.27;17.47;98150.13;6944976;28;20229;-82
2023/10/13 14:50:14;;;;;;;2.93;2.50;;;;;;;32.47;17.45;98164.91;6937028;28;20336;-82
2023/10/13 14:53:35;;;;;;;5.37;3.27;;;;;;;32.74;17.15;98166.75;6942331;28;20249;-83
2023/10/13 14:56:57;;;;;;;5.10;2.90;;;;;;;32.74;17.41;98156.41;6943484;28;20309;-81
2023/10/13 15:00:24;;;;;;;6.97;2.80;;;;;;;32.58;17.57;98154.81;6941168;28;20695;-82
2023/10/13 15:03:48;;;;;;;9.13;3.17;;;;;;;32.30;17.31;98151.38;6941027;28;20349;-82
2023/10/13 15:07:09;;;;;;;2.70;2.30;;;;;;;32.61;16.75;98146.53;6936488;28;20299;-81
2023/10/13 15:10:31;;;;;;;4.80;2.80;;;;;;;32.56;16.58;98148.81;6936140;28;20722;-81
2023/10/13 15:13:52;;;;;;;3.07;2.43;;;;;;;32.55;16.59;98149.97;6942211;28;20234;-80
2023/10/13 15:17:15;;;;;;;3.57;2.53;;;;;;;32.31;16.61;98125.09;6933337;28;20230;-80
2023/10/13 15:20:43;;;;;;;4.47;2.63;;;;;;;32.62;16.74;98138.97;6948220;28;20551;-81
2023/10/13 15:24:13;;;;;;;5.17;2.63;;;;;;;32.71;16.37;98134.78;6969883;28;20235;-82
2023/10/13 15:27:41;;;;;;;7.33;2.87;;;;;;;32.47;16.91;98135.03;6947174;28;20228;-80
2023/10/13 15:31:10;;;;;;;6.77;2.70;;;;;;;32.46;16.19;98129.81;6943343;28;20185;-80
2023/10/13 15:34:32;;;;;;;5.47;2.70;;;;;;;32.75;15.89;98126.50;6942874;28;20374;-81
2023/10/13 15:37:55;;;;;;;5.53;2.37;;;;;;;32.02;16.23;98122.75;6949403;28;20209;-82
2023/10/13 15:41:21;;;;;;;4.60;2.63;;;;;;;32.17;16.31;98128.31;6951766;28;20215;-80
2023/10/13 15:44:43;;;;;;;5.20;2.93;;;;;;;31.98;15.97;98133.00;6942181;28;20764;-81
2023/10/13 15:48:06;;;;;;;3.47;2.40;;;;;;;32.34;15.92;98133.53;6969587;28;20211;-81
2023/10/13 15:51:28;;;;;;;5.37;2.80;;;;;;;31.74;15.90;98131.22;6970819;28;20211;-82
2023/10/13 15:54:51;;;;;;;6.37;2.57;;;;;;;31.24;16.18;98122.63;6942926;28;20319;-83
2023/10/13 15:58:13;;;;;;;4.30;2.47;;;;;;;31.56;15.86;98118.75;6976666;28;20347;-81
2023/10/13 16:01:34;;;;;;;3.97;2.33;;;;;;;31.30;16.56;98114.84;6979064;28;20238;-80
2023/10/13 16:04:59;;;;;;;3.87;2.53;;;;;;;31.68;16.56;98121.47;6978971;28;20296;-81
2023/10/13 16:08:21;;;;;;;4.67;2.87;;;;;;;31.51;16.39;98109.81;6980951;28;20218;-81
2023/10/13 16:11:44;;;;;;;3.33;2.60;;;;;;;31.60;16.35;98108.47;6945915;28;20237;-81
2023/10/13 16:15:08;;;;;;;5.37;2.73;;;;;;;31.82;16.29;98109.88;6950876;28;20268;-82
2023/10/13 16:18:32;;;;;;;5.97;2.50;;;;;;;31.56;16.18;98049.06;6972767;28;20242;-80
2023/10/13 16:21:55;;;;;;;5.17;2.73;;;;;;;31.67;16.51;98102.31;6965986;28;20198;-80
2023/10/13 16:25:18;;;;;;;14.90;13.53;;;;;;;31.59;16.50;98106.88;6977340;28;20241;-82
2023/10/13 16:28:40;;;;;;;4.00;2.93;;;;;;;31.58;16.29;98088.53;6932662;28;20208;-81
2023/10/13 16:32:02;;;;;;;4.57;3.60;;;;;;;31.56;16.57;98092.84;6938596;28;20676;-81
2023/10/13 16:35:24;;;;;;;46.63;42.60;;;;;;;31.75;16.93;98085.44;6952998;28;20241;-81
2023/10/13 16:38:45;;;;;;;146.33;98.73;;;;;;;31.47;17.37;98086.63;6953187;28;20693;-81
2023/10/13 16:42:08;;;;;;;5.60;3.67;;;;;;;31.24;17.88;98069.69;6956086;28;20245;-81
2023/10/13 16:45:31;;;;;;;7.50;3.23;;;;;;;30.51;19.97;98089.78;6959698;28;20236;-81
2023/10/13 16:48:53;;;;;;;4.17;2.60;;;;;;;29.66;21.84;98100.09;6948085;28;20214;-81
2023/10/13 16:52:14;;;;;;;4.43;2.80;;;;;;;28.76;23.86;98095.63;6953129;28;20210;-81
2023/10/13 16:55:36;;;;;;;8.97;3.10;;;;;;;27.97;25.66;98074.63;6956035;28;20250;-81
2023/10/13 16:58:57;;;;;;;6.63;3.30;;;;;;;27.48;26.92;98089.19;6950273;28;20345;-80
2023/10/13 17:02:21;;;;;;;3.50;2.83;;;;;;;27.23;27.69;98099.19;6957053;28;20256;-80
2023/10/13 17:05:43;;;;;;;7.47;3.17;;;;;;;27.38;27.97;98092.31;6954661;28;20240;-80
2023/10/13 17:09:11;;;;;;;6.33;3.00;;;;;;;26.94;29.02;98093.53;6944208;28;20253;-80
2023/10/13 17:12:33;;;;;;;5.60;3.43;;;;;;;26.54;29.76;98097.59;6968222;28;20214;-80
2023/10/13 17:15:55;;;;;;;11.07;3.37;;;;;;;26.15;30.96;98117.06;6960997;28;20226;-80
2023/10/13 17:19:17;;;;;;;4.20;2.73;;;;;;;25.61;30.48;98122.19;6963747;28;20291;-80
2023/10/13 17:22:40;;;;;;;6.90;3.00;;;;;;;26.04;29.18;98117.66;6954321;28;20207;-80
2023/10/13 17:26:01;;;;;;;5.87;3.10;;;;;;;26.05;29.51;98111.81;6968349;28;20226;-80
2023/10/13 17:29:23;;;;;;;6.43;2.90;;;;;;;25.80;29.51;98087.69;6969141;28;20214;-80
2023/10/13 17:32:45;;;;;;;8.47;3.27;;;;;;;25.71;31.35;98095.13;6952912;28;20213;-80
2023/10/13 17:36:08;;;;;;;4.87;3.37;;;;;;;25.07;32.30;98095.75;6949025;28;20318;-79
2023/10/13 17:39:30;;;;;;;6.13;3.20;;;;;;;24.53;33.39;98086.88;6954811;28;20218;-79
2023/10/13 17:42:52;;;;;;;5.73;3.10;;;;;;;24.78;33.23;98111.91;6953438;28;20211;-79
2023/10/13 17:46:14;;;;;;;5.20;3.00;;;;;;;24.69;33.44;98107.47;6970668;28;20596;-79
2023/10/13 17:49:39;;;;;;;5.43;3.07;;;;;;;24.50;33.48;98073.72;6957942;28;20252;-79
2023/10/13 17:53:02;;;;;;;4.60;3.07;;;;;;;24.21;34.20;98106.38;6933103;28;20329;-79
2023/10/13 17:56:23;;;;;;;5.93;3.00;;;;;;;24.29;33.77;98072.56;6942812;28;20273;-79
2023/10/13 17:59:45;;;;;;;5.10;3.00;;;;;;;23.96;34.94;98096.72;6956694;28;20214;-78